Time,TemperatureF,DewpointF,PressureIn,WindDirection,WindDirectionDegrees,WindSpeedMPH,WindSpeedGustMPH,Humidity,HourlyPrecipIn,Conditions,Clouds,dailyrainin,SoftwareType,DateUTC
2013-03-08 00:01:00,44.0,44.0,-100.00,SSE,163,-999.0,-999.0,100,-99.99,,,-99.99,,2013-03-08 08:01:00,
2013-03-08 00:11:00,44.0,44.0,-100.00,SSE,163,-999.0,-999.0,100,-99.99,,,-99.99,,2013-03-08 08:11:00,
2013-03-08 00:52:00,42.0,42.0,-100.00,WNW,296,-999.0,-999.0,100,-99.99,,,-99.99,,2013-03-08 08:52:00,
2013-03-08 01:01:00,41.0,41.0,-100.00,West,270,-999.0,-999.0,100,-99.99,,,-99.99,,2013-03-08 09:01:00,
2013-03-08 01:21:00,41.0,41.0,-100.00,West,270,-999.0,-999.0,100,-99.99,,,-99.99,,2013-03-08 09:21:00,
2013-03-08 01:31:00,41.0,41.0,-100.00,West,270,-999.0,-999.0,100,-99.99,,,-99.99,,2013-03-08 09:31:00,
2013-03-08 01:42:00,41.0,41.0,-100.00,West,270,-999.0,-999.0,100,-99.99,,,-99.99,,2013-03-08 09:42:00,
2013-03-08 01:51:00,41.0,41.0,-100.00,West,270,-999.0,-999.0,100,-99.99,,,-99.99,,2013-03-08 09:51:00,
2013-03-08 08:22:00,46.0,43.0,-100.00,North,-999,-999.0,-999.0,90,-99.99,,,-99.99,,2013-03-08 16:22:00,
2013-03-08 08:32:00,46.0,43.0,-100.00,North,-999,-999.0,-999.0,90,-99.99,,,-99.99,,2013-03-08 16:32:00,
2013-03-08 08:42:00,46.0,43.0,-100.00,North,-999,-999.0,-999.0,90,-99.99,,,-99.99,,2013-03-08 16:42:00,
2013-03-08 08:52:00,49.0,45.0,-100.00,SW,234,-999.0,-999.0,87,-99.99,,,-99.99,,2013-03-08 16:52:00,
2013-03-08 09:02:00,49.0,45.0,-100.00,SW,234,-999.0,-999.0,87,-99.99,,,-99.99,,2013-03-08 17:02:00,
2013-03-08 09:11:00,49.0,45.0,-100.00,SW,234,-999.0,-999.0,87,-99.99,,,-99.99,,2013-03-08 17:11:00,
2013-03-08 09:21:00,52.0,44.0,-100.00,South,185,-999.0,-999.0,74,-99.99,,,-99.99,,2013-03-08 17:21:00,
2013-03-08 09:31:00,52.0,44.0,-100.00,South,185,-999.0,-999.0,74,-99.99,,,-99.99,,2013-03-08 17:31:00,
2013-03-08 09:42:00,52.0,44.0,-100.00,South,185,-999.0,-999.0,74,-99.99,,,-99.99,,2013-03-08 17:42:00,
2013-03-08 09:52:00,44.0,42.0,-100.00,SSW,196,-999.0,-999.0,92,-99.99,,,-99.99,,2013-03-08 17:52:00,
2013-03-08 10:01:00,44.0,42.0,-100.00,SSW,196,-999.0,-999.0,92,-99.99,,,-99.99,,2013-03-08 18:01:00,
2013-03-08 10:11:00,44.0,42.0,-100.00,SSW,196,-999.0,-999.0,92,-99.99,,,-99.99,,2013-03-08 18:11:00,
2013-03-08 10:21:00,44.0,41.0,-100.00,NNW,341,-999.0,-999.0,88,-99.99,,,-99.99,,2013-03-08 18:21:00,
2013-03-08 10:31:00,44.0,41.0,-100.00,NNW,341,-999.0,-999.0,88,-99.99,,,-99.99,,2013-03-08 18:31:00,
2013-03-08 10:42:00,44.0,41.0,-100.00,NNW,341,-999.0,-999.0,88,-99.99,,,-99.99,,2013-03-08 18:42:00,
2013-03-08 10:52:00,47.0,40.0,-100.00,WSW,257,-999.0,-999.0,77,-99.99,,,-99.99,,2013-03-08 18:52:00,
2013-03-08 11:01:00,47.0,40.0,-100.00,WSW,257,-999.0,-999.0,77,-99.99,,,-99.99,,2013-03-08 19:01:00,
2013-03-08 11:11:00,47.0,40.0,-100.00,WSW,257,-999.0,-999.0,77,-99.99,,,-99.99,,2013-03-08 19:11:00,
2013-03-08 11:21:00,49.0,42.0,-100.00,West,264,-999.0,-999.0,76,-99.99,,,-99.99,,2013-03-08 19:21:00,
2013-03-08 11:31:00,49.0,42.0,-100.00,West,264,-999.0,-999.0,76,-99.99,,,-99.99,,2013-03-08 19:31:00,
2013-03-08 11:42:00,49.0,42.0,-100.00,West,264,-999.0,-999.0,76,-99.99,,,-99.99,,2013-03-08 19:42:00,
2013-03-08 11:52:00,46.0,41.0,-100.00,WNW,283,-999.0,-999.0,82,-99.99,,,-99.99,,2013-03-08 19:52:00,
2013-03-08 12:01:00,46.0,41.0,-100.00,WNW,283,-999.0,-999.0,82,-99.99,,,-99.99,,2013-03-08 20:01:00,
2013-03-08 12:11:00,46.0,41.0,-100.00,WNW,283,-999.0,-999.0,82,-99.99,,,-99.99,,2013-03-08 20:11:00,
2013-03-08 12:21:00,46.0,41.0,-100.00,SW,223,-999.0,-999.0,81,-99.99,,,-99.99,,2013-03-08 20:21:00,
2013-03-08 12:31:00,46.0,41.0,-100.00,SW,223,-999.0,-999.0,81,-99.99,,,-99.99,,2013-03-08 20:31:00,
2013-03-08 12:42:00,46.0,41.0,-100.00,SW,223,-999.0,-999.0,81,-99.99,,,-99.99,,2013-03-08 20:42:00,
2013-03-08 12:53:00,46.0,41.0,-100.00,WSW,249,-999.0,-999.0,82,-99.99,,,-99.99,,2013-03-08 20:53:00,
2013-03-08 13:01:00,46.0,41.0,-100.00,WSW,249,-999.0,-999.0,82,-99.99,,,-99.99,,2013-03-08 21:01:00,
2013-03-08 13:11:00,46.0,41.0,-100.00,WSW,249,-999.0,-999.0,82,-99.99,,,-99.99,,2013-03-08 21:11:00,
2013-03-08 13:21:00,45.0,42.0,-100.00,West,276,-999.0,-999.0,88,-99.99,,,-99.99,,2013-03-08 21:21:00,
2013-03-08 13:32:00,45.0,42.0,-100.00,West,276,-999.0,-999.0,88,-99.99,,,-99.99,,2013-03-08 21:32:00,
2013-03-08 13:42:00,45.0,42.0,-100.00,West,276,-999.0,-999.0,88,-99.99,,,-99.99,,2013-03-08 21:42:00,
2013-03-08 13:52:00,45.0,42.0,-100.00,West,276,-999.0,-999.0,88,-99.99,,,-99.99,,2013-03-08 21:52:00,
2013-03-08 16:31:00,47.0,44.0,-100.00,WSW,244,-999.0,-999.0,89,-99.99,,,-99.99,,2013-03-09 00:31:00,
2013-03-08 16:52:00,47.0,44.0,-100.00,WSW,244,-999.0,-999.0,89,-99.99,,,-99.99,,2013-03-09 00:52:00,
2013-03-08 17:01:00,47.0,44.0,-100.00,WSW,244,-999.0,-999.0,89,-99.99,,,-99.99,,2013-03-09 01:01:00,
2013-03-08 17:12:00,47.0,44.0,-100.00,WSW,244,-999.0,-999.0,89,-99.99,,,-99.99,,2013-03-09 01:12:00,
2013-03-08 17:21:00,47.0,44.0,-100.00,WSW,244,-999.0,-999.0,89,-99.99,,,-99.99,,2013-03-09 01:21:00,
2013-03-08 19:32:00,46.0,46.0,-100.00,NW,312,-999.0,-999.0,99,-99.99,,,-99.99,,2013-03-09 03:32:00,
2013-03-08 19:42:00,46.0,46.0,-100.00,NW,312,-999.0,-999.0,99,-99.99,,,-99.99,,2013-03-09 03:42:00,
2013-03-08 19:52:00,45.0,44.0,-100.00,NW,311,-999.0,-999.0,98,-99.99,,,-99.99,,2013-03-09 03:52:00,
2013-03-08 20:01:00,45.0,44.0,-100.00,NW,311,-999.0,-999.0,98,-99.99,,,-99.99,,2013-03-09 04:01:00,
2013-03-08 20:11:00,45.0,44.0,-100.00,NW,311,-999.0,-999.0,98,-99.99,,,-99.99,,2013-03-09 04:11:00,
2013-03-08 20:22:00,45.0,45.0,-100.00,North,360,-999.0,-999.0,100,-99.99,,,-99.99,,2013-03-09 04:22:00,
2013-03-08 20:31:00,45.0,45.0,-100.00,North,360,-999.0,-999.0,100,-99.99,,,-99.99,,2013-03-09 04:31:00,
2013-03-08 20:42:00,45.0,45.0,-100.00,North,360,-999.0,-999.0,100,-99.99,,,-99.99,,2013-03-09 04:42:00,
2013-03-08 20:52:00,45.0,45.0,-100.00,North,360,-999.0,-999.0,100,-99.99,,,-99.99,,2013-03-09 04:52:00,
2013-03-08 22:52:00,43.0,42.0,-100.00,NNW,327,-999.0,-999.0,97,-99.99,,,-99.99,,2013-03-09 06:52:00,
2013-03-08 23:01:00,43.0,42.0,-100.00,NNW,327,-999.0,-999.0,97,-99.99,,,-99.99,,2013-03-09 07:01:00,
2013-03-08 23:11:00,43.0,42.0,-100.00,NNW,327,-999.0,-999.0,97,-99.99,,,-99.99,,2013-03-09 07:11:00,
2013-03-08 23:21:00,43.0,42.0,-100.00,NNW,329,-999.0,-999.0,97,-99.99,,,-99.99,,2013-03-09 07:21:00,
2013-03-08 23:31:00,43.0,42.0,-100.00,NNW,329,-999.0,-999.0,97,-99.99,,,-99.99,,2013-03-09 07:31:00,
2013-03-08 23:42:00,43.0,42.0,-100.00,NNW,329,-999.0,-999.0,97,-99.99,,,-99.99,,2013-03-09 07:42:00,
2013-03-08 23:52:00,43.0,43.0,-100.00,NW,320,-999.0,-999.0,99,-99.99,,,-99.99,,2013-03-09 07:52:00,